Armstrong Creek, Wisconsin
Current Conditions -  °F | °C
As of 12:54 PM on Sunday 23 Nov 2014 (Local Time) from KIMT Reporting Station
Moderate Fog Moderate Fog  
Wind Chill: 39°   Ceiling: 100
Heat Index: 43°   Visibility: 0mi
Dew Point: 42°   Wind: 6mph
Humidity: 97%   Direction: 160°SSE
Pressure: 29.49"   Gusts: NA
Location:  45.66°N, 88.45°W
Report Text: KIMT 231854Z AUTO 16005KT M1/4SM FG VV001 06/06 A2949 RMK AO2 SLP997 T00610056
Loading
Personal Weather Stations






























Interactive Weather Map New forecast layout! Learn more

10-Day Weather Forecast

Advertisements
Track Severe Weather on mobile